Latest Weather Observations for Ballarat

IDV60801

Issued at 9:31 pm EDT Saturday 28 March 2015 (issued every 30 minutes, with the page automatically refreshed every 10 minutes)

About weather observations | Map of weather stations | Latest weather observations for VIC | Other Formats
Station Details ID: 089002 Name: BALLARAT AERODROME Lat: -37.51 Lon: 143.79 Height: 435.2 m
Data from the previous 72 hours. | See also: Recent months at Ballarat
Date/Time
EDT
Temp
°C
App
Temp
°C
Dew
Point
Rel
Hum
%
Delta-T
°C
Wind Press
QNH
hPa
Press
MSL
hPa
Rain
since 9 am
mm
Dir
 
Spd
km/h
Gust
km/h
Spd
kts
Gust
kts
28/09:30pm 10.5 8.5 8.8 89 0.9 SSE 9 11 5 6 1022.7 1021.8 0.0
28/09:00pm 11.2 9.2 8.6 84 1.3 S 9 11 5 6 1022.6 1021.7 0.0
28/08:30pm 11.9 9.9 8.6 80 1.7 S 9 11 5 6 1022.7 1021.8 0.0
28/08:00pm 13.2 11.2 8.5 73 2.4 S 9 11 5 6 1022.3 1021.4 0.0
28/07:30pm 14.1 12.1 8.5 69 2.9 WSW 9 11 5 6 1022.3 1021.4 0.0
28/07:00pm 15.5 13.0 8.0 61 3.8 W 11 13 6 7 1022.3 1021.4 0.0
28/06:30pm 15.7 13.2 8.0 60 4.0 WNW 11 15 6 8 1022.3 1021.4 0.0
28/06:00pm 16.6 14.5 8.1 57 4.4 SW 9 13 5 7 1022.1 1021.2 0.0
28/05:30pm 17.2 15.6 7.8 54 4.9 WSW 6 9 3 5 1022.2 1021.3 0.0
28/05:00pm 16.6 15.3 7.8 56 4.5 S 4 9 2 5 1022.3 1021.4 0.0
28/04:30pm 16.4 13.7 7.3 55 4.6 W 11 17 6 9 1022.7 1021.8 0.0
28/04:00pm 16.1 13.5 7.8 58 4.2 W 11 17 6 9 1023.0 1022.0 0.0
28/03:30pm 16.6 13.7 8.1 57 4.4 WSW 13 20 7 11 1023.3 1022.4 0.0
28/03:00pm 16.0 13.2 8.5 61 3.9 SW 13 17 7 9 1023.7 1022.8 0.0
28/02:30pm 15.2 12.2 7.7 61 3.8 SW 13 19 7 10 1023.9 1023.0 0.0
28/02:00pm 15.1 13.0 8.1 63 3.6 W 9 17 5 9 1024.3 1023.4 0.0
28/01:30pm 15.7 12.9 8.4 62 3.8 WSW 13 26 7 14 1024.5 1023.6 0.0
28/01:00pm 15.5 13.7 7.8 60 3.9 SW 7 15 4 8 1024.8 1023.9 0.0
28/12:30pm 13.9 12.1 7.0 63 3.4 WNW 6 13 3 7 1025.3 1024.5 0.0
28/12:00pm 12.9 11.0 6.9 67 2.9 NW 6 11 3 6 1025.8 1024.9 0.0
28/11:30am 12.9 11.3 8.0 72 2.5 SW 6 11 3 6 1026.0 1025.1 0.0
28/11:00am 11.8 9.6 7.7 76 2.0 SSW 9 15 5 8 1026.3 1025.4 0.0
28/10:30am 11.0 9.1 6.9 76 2.0 SSW 6 9 3 5 1026.2 1025.3 0.0
28/10:00am 10.2 7.8 6.9 80 1.6 SSW 9 13 5 7 1026.3 1025.4 0.0
28/09:30am 10.4 9.4 7.3 81 1.5 SSW 2 7 1 4 1026.5 1025.6 0.0
28/09:00am 9.5 7.6 6.9 84 1.2 S 6 11 3 6 1026.2 1025.3 2.2
28/08:30am 9.2 6.9 7.5 89 0.8 ESE 9 13 5 7 1026.0 1025.1 2.2
28/08:00am 9.2 7.2 7.3 88 0.9 S 7 9 4 5 1025.6 1024.7 2.2
28/07:30am 9.0 6.4 7.8 92 0.6 SE 11 15 6 8 1025.2 1024.4 2.2
28/07:00am 9.2 6.9 7.5 89 0.8 S 9 19 5 10 1025.0 1024.1 2.2
28/06:30am 9.1 7.7 8.8 98 0.2 SW 6 7 3 4 1025.1 1024.2 2.2
28/06:00am 9.0 7.6 8.7 98 0.1 SSW 6 7 3 4 1024.8 1023.9 2.2
28/05:30am 9.1 7.5 8.8 98 0.2 SSW 7 9 4 5 1024.9 1024.0 2.2
28/05:00am 9.1 7.1 8.8 98 0.1 SSE 9 13 5 7 1024.8 1023.9 2.2
28/04:30am 9.1 7.1 8.6 97 0.2 S 9 13 5 7 1024.6 1023.7 2.2
28/04:00am 9.2 6.8 8.7 97 0.2 S 11 19 6 10 1024.7 1023.8 2.2
28/03:30am 9.0 7.4 8.9 99 0.1 SSW 7 11 4 6 1024.9 1024.0 2.2
28/03:00am 9.0 6.7 8.9 99 0.0 SSW 11 17 6 9 1025.1 1024.2 2.2
28/02:30am 9.0 7.1 8.9 99 0.1 SSW 9 13 5 7 1025.2 1024.4 2.2
28/02:00am 8.9 7.3 8.8 99 0.0 SSW 7 11 4 6 1025.3 1024.5 2.2
28/01:30am 8.8 6.8 8.7 99 0.0 SSE 9 13 5 7 1025.3 1024.5 2.2
28/01:27am 8.8 6.8 8.7 99 0.0 SSE 9 13 5 7 1025.3 1024.5 2.2
28/01:19am 8.8 6.0 8.7 99 0.0 S 13 19 7 10 1025.3 1024.5 2.2
28/01:01am 8.9 6.2 8.8 99 0.0 SSW 13 19 7 10 1025.5 1024.6 2.2
28/01:00am 8.9 6.2 8.8 99 0.0 SSW 13 19 7 10 1025.5 1024.6 2.2
28/12:30am 9.1 7.2 9.0 99 0.1 SSW 9 13 5 7 1025.6 1024.7 1.8
28/12:11am 9.1 6.8 9.0 99 0.1 SSW 11 15 6 8 1025.6 1024.7 1.8
28/12:00am 9.1 6.4 9.0 99 0.0 SSW 13 17 7 9 1025.7 1024.9 1.8
 
Date/Time
EDT
Temp
°C
App
Temp
°C
Dew
Point
Rel
Hum
%
Delta-T
°C
Wind Press
QNH
hPa
Press
MSL
hPa
Rain
since 9 am
mm
Dir
 
Spd
km/h
Gust
km/h
Spd
kts
Gust
kts
27/11:43pm 9.2 6.5 9.1 99 0.1 SSW 13 19 7 10 1025.8 1024.9 1.8
27/11:30pm 9.3 6.7 9.2 99 0.1 SSW 13 22 7 12 1025.8 1024.9 1.8
27/11:00pm 9.6 7.8 9.5 99 0.1 SW 9 15 5 8 1025.9 1025.0 0.6
27/10:56pm 9.7 7.9 9.6 99 0.1 SW 9 15 5 8 1025.9 1025.0 0.6
27/10:30pm 9.9 8.1 9.6 98 0.2 SSW 9 13 5 7 1025.7 1024.8 0.6
27/10:00pm 9.9 8.1 9.6 98 0.2 SSW 9 11 5 6 1025.8 1024.9 0.6
27/09:30pm 9.8 8.0 9.5 98 0.2 SSW 9 15 5 8 1025.9 1025.0 0.6
27/09:00pm 10.0 7.9 9.7 98 0.2 SSW 11 19 6 10 1025.6 1024.7 0.6
27/08:30pm 10.6 7.8 8.7 88 1.0 SSW 13 19 7 10 1025.2 1024.4 0.6
27/08:00pm 10.8 8.0 8.6 86 1.1 SSW 13 20 7 11 1025.0 1024.1 0.6
27/07:30pm 11.2 7.2 8.2 82 1.5 S 19 24 10 13 1024.7 1023.8 0.6
27/07:00pm 11.7 8.0 7.8 77 1.9 SSW 17 28 9 15 1024.4 1023.5 0.6
27/06:30pm 12.6 8.7 7.1 69 2.7 SSW 17 24 9 13 1024.3 1023.4 0.6
27/06:00pm 12.7 8.1 6.5 66 3.0 SSW 20 28 11 15 1024.0 1023.1 0.6
27/05:30pm 12.8 8.5 7.0 68 2.9 SW 19 28 10 15 1023.9 1023.0 0.6
27/05:00pm 13.5 9.0 6.8 64 3.3 SW 20 30 11 16 1023.9 1023.0 0.6
27/04:30pm 14.7 9.9 5.8 55 4.3 SW 20 32 11 17 1024.0 1023.1 0.6
27/04:00pm 13.2 8.1 5.9 61 3.5 WSW 22 33 12 18 1024.1 1023.2 0.6
27/03:30pm 12.7 7.9 5.4 61 3.5 SW 20 28 11 15 1024.3 1023.4 0.6
27/03:00pm 12.3 6.8 6.1 66 3.0 SW 24 35 13 19 1024.4 1023.5 0.6
27/02:30pm 11.7 6.6 6.2 69 2.6 SW 22 35 12 19 1024.6 1023.7 0.6
27/02:00pm 12.0 5.9 6.5 69 2.7 SW 28 35 15 19 1024.8 1023.9 0.6
27/01:30pm 12.3 8.0 7.8 74 2.3 SW 20 30 11 16 1024.9 1024.0 0.6
27/01:17pm 11.5 7.4 8.5 82 1.5 SW 20 37 11 20 1025.0 1024.1 0.6
27/01:06pm 10.9 7.3 10.6 98 0.2 SW 20 32 11 17 1025.2 1024.4 0.6
27/01:00pm 10.4 6.3 10.1 98 0.2 SSW 22 33 12 18 1025.3 1024.5 0.6
27/12:59pm 10.3 6.2 10.0 98 0.2 SSW 22 33 12 18 1025.3 1024.5 0.6
27/12:47pm 10.0 4.7 9.7 98 0.2 WSW 28 43 15 23 1025.3 1024.5 0.6
27/12:37pm 12.0 8.2 11.2 95 0.4 WSW 22 32 12 17 1025.0 1024.1 0.2
27/12:30pm 11.5 7.4 10.1 91 0.7 SW 22 32 12 17 1025.1 1024.2 0.2
27/12:25pm 11.7 7.9 11.1 96 0.3 SW 22 35 12 19 1025.1 1024.2 0.2
27/12:17pm 11.9 8.8 11.6 98 0.2 SW 19 28 10 15 1025.1 1024.2 0.2
27/12:07pm 10.3 6.6 10.0 98 0.2 SW 20 33 11 18 1025.3 1024.5 0.2
27/12:00pm 10.9 7.2 10.0 94 0.5 SW 20 30 11 16 1025.2 1024.4 0.2
27/11:30am 10.5 6.0 10.0 97 0.3 SSW 24 37 13 20 1025.0 1024.1 0.2
27/11:15am 10.4 6.8 9.9 97 0.3 SW 19 26 10 14 1025.0 1024.1 0.2
27/11:00am 10.5 7.4 10.3 99 0.1 SW 17 24 9 13 1024.8 1023.9 0.2
27/10:49am 9.7 6.8 9.6 99 0.1 SW 15 20 8 11 1024.9 1024.0 0.2
27/10:30am 9.2 4.8 9.1 99 0.1 SW 22 30 12 16 1024.8 1023.9 0.0
27/10:25am 9.4 4.7 9.3 99 0.1 SW 24 39 13 21 1024.8 1023.9 0.0
27/10:00am 9.5 5.2 9.2 98 0.2 SW 22 33 12 18 1024.6 1023.7 0.0
27/09:30am 9.3 4.5 9.0 98 0.2 WSW 24 32 13 17 1024.4 1023.5 0.0
27/09:00am 9.3 4.9 9.0 98 0.2 WSW 22 32 12 17 1024.3 1023.4 6.8
27/08:30am 9.1 5.7 9.0 99 0.1 WSW 17 26 9 14 1023.8 1022.9 6.8
27/08:00am 8.8 4.7 8.7 99 0.0 SW 20 32 11 17 1023.4 1022.5 6.8
27/07:47am 8.7 3.8 8.6 99 0.0 WSW 24 33 13 18 1023.2 1022.2 6.8
27/07:36am 8.8 3.6 8.7 99 0.0 WSW 26 33 14 18 1023.0 1022.0 6.8
27/07:30am 8.9 4.5 8.8 99 0.0 WSW 22 33 12 18 1023.0 1022.0 6.8
27/07:00am 9.2 5.2 9.1 99 0.1 WSW 20 32 11 17 1022.6 1021.7 6.4
27/06:30am 9.3 4.6 9.2 99 0.1 WSW 24 37 13 20 1022.4 1021.5 6.4
27/06:00am 9.3 5.0 9.2 99 0.1 WSW 22 33 12 18 1022.1 1021.2 6.4
27/05:30am 9.4 6.0 9.3 99 0.1 WSW 17 30 9 16 1021.8 1020.9 6.4
27/05:00am 9.5 5.6 9.4 99 0.1 WSW 20 32 11 17 1021.8 1020.9 6.4
27/04:30am 9.5 5.6 9.4 99 0.1 WSW 20 28 11 15 1021.6 1020.7 6.4
27/04:00am 9.5 6.5 9.4 99 0.1 WSW 15 22 8 12 1021.5 1020.6 6.4
27/03:30am 9.5 5.6 9.4 99 0.1 WSW 20 30 11 16 1021.5 1020.6 6.4
27/03:24am 9.5 5.8 9.4 99 0.1 WSW 19 30 10 16 1021.4 1020.5 6.4
27/03:00am 9.4 5.5 9.3 99 0.1 SW 20 30 11 16 1021.5 1020.6 5.4
27/02:46am 9.7 5.5 9.6 99 0.1 WSW 22 32 12 17 1021.4 1020.5 5.2
27/02:30am 9.8 5.2 9.7 99 0.1 WSW 24 32 13 17 1021.2 1020.2 4.8
27/02:00am 9.6 5.7 9.5 99 0.1 WSW 20 33 11 18 1021.1 1020.1 4.8
27/01:57am 9.6 5.3 9.5 99 0.1 WSW 22 33 12 18 1021.1 1020.1 4.8
27/01:46am 9.5 5.6 9.4 99 0.1 WSW 20 32 11 17 1021.0 1020.0 4.8
27/01:30am 9.7 5.5 9.6 99 0.1 WSW 22 35 12 19 1021.1 1020.1 4.6
27/01:18am 9.7 5.1 9.6 99 0.1 WSW 24 39 13 21 1021.0 1020.0 4.6
27/01:00am 9.7 5.1 9.6 99 0.1 WSW 24 33 13 18 1020.8 1019.8 4.6
27/12:59am 9.8 5.2 9.7 99 0.1 WSW 24 33 13 18 1020.8 1019.8 4.6
27/12:30am 9.8 5.6 9.7 99 0.1 WSW 22 37 12 20 1020.9 1019.9 4.2
27/12:00am 9.7 5.8 9.6 99 0.1 WSW 20 33 11 18 1020.7 1019.7 4.2
 
Date/Time
EDT
Temp
°C
App
Temp
°C
Dew
Point
Rel
Hum
%
Delta-T
°C
Wind Press
QNH
hPa
Press
MSL
hPa
Rain
since 9 am
mm
Dir
 
Spd
km/h
Gust
km/h
Spd
kts
Gust
kts
26/11:46pm 9.8 5.6 9.7 99 0.1 WSW 22 33 12 18 1020.7 1019.7 4.2
26/11:30pm 9.8 5.2 9.7 99 0.1 W 24 33 13 18 1020.4 1019.5 3.8
26/11:00pm 9.6 4.6 9.5 99 0.1 W 26 35 14 19 1020.6 1019.6 3.8
26/10:30pm 9.6 3.8 9.6 100 0.0 WSW 30 41 16 22 1020.4 1019.5 3.8
26/10:00pm 9.6 4.2 9.6 100 0.0 W 28 37 15 20 1020.3 1019.4 3.6
26/09:41pm 9.5 3.3 9.4 99 0.1 W 32 50 17 27 1020.0 1019.1 3.2
26/09:30pm 9.5 3.1 9.4 99 0.1 W 33 43 18 23 1020.0 1019.1 3.2
26/09:10pm 9.6 3.8 9.5 99 0.1 W 30 41 16 22 1019.7 1018.8 3.0
26/09:00pm 9.6 3.4 9.5 99 0.1 W 32 43 17 23 1019.7 1018.8 2.6
26/08:41pm 9.4 3.9 9.3 99 0.1 W 28 48 15 26 1019.5 1018.6 2.6
26/08:30pm 9.4 3.9 9.3 99 0.1 W 28 41 15 22 1019.4 1018.5 2.2
26/08:15pm 9.4 3.2 9.3 99 0.1 W 32 43 17 23 1019.3 1018.4 2.0
26/08:00pm 9.5 2.7 9.4 99 0.1 W 35 48 19 26 1019.2 1018.3 1.6
26/07:55pm 9.4 2.2 9.3 99 0.1 W 37 54 20 29 1019.1 1018.1 1.6
26/07:40pm 9.5 3.1 9.4 99 0.1 W 33 46 18 25 1018.9 1017.9 1.4
26/07:38pm 9.6 2.9 9.5 99 0.1 W 35 50 19 27 1019.0 1018.0 1.4
26/07:34pm 9.6 2.4 9.3 98 0.2 W 37 50 20 27 1018.9 1017.9 1.4
26/07:30pm 9.7 2.6 9.4 98 0.2 W 37 50 20 27 1018.8 1017.8 1.0
26/07:17pm 9.6 2.4 9.3 98 0.2 W 37 48 20 26 1018.7 1017.7 1.0
26/07:05pm 9.8 1.9 9.5 98 0.2 W 41 61 22 33 1018.5 1017.5 0.6
26/07:00pm 9.9 2.8 9.6 98 0.2 W 37 50 20 27 1018.5 1017.5 0.4
26/06:30pm 9.4 2.2 9.1 98 0.2 WNW 37 57 20 31 1018.4 1017.4 0.2
26/06:25pm 9.4 1.8 9.1 98 0.2 WNW 39 57 21 31 1018.4 1017.4 0.2
26/06:00pm 10.4 2.4 7.3 81 1.5 WNW 39 54 21 29 1017.8 1016.9 0.2
26/05:31pm 10.6 2.4 6.6 76 1.9 WNW 39 57 21 31 1017.8 1016.9 0.2
26/05:30pm 10.5 1.9 6.3 75 2.0 WNW 41 57 22 31 1017.7 1016.8 0.2
26/05:03pm 11.0 2.6 5.5 69 2.6 WNW 39 63 21 34 1017.7 1016.8 0.2
26/05:00pm 11.6 3.1 5.0 64 3.1 WNW 39 54 21 29 1017.7 1016.8 0.2
26/04:30pm 11.5 4.6 4.7 63 3.2 WNW 30 43 16 23 1017.8 1016.9 0.2
26/04:00pm 10.9 3.6 4.6 65 2.9 WNW 32 41 17 22 1017.8 1016.9 0.2
26/03:30pm 12.4 4.6 3.1 53 4.2 WNW 33 44 18 24 1017.6 1016.7 0.2
26/03:00pm 11.8 2.1 3.1 55 3.9 W 43 67 23 36 1017.7 1016.8 0.2
26/02:55pm 12.0 2.4 1.3 48 4.6 WNW 41 67 22 36 1017.6 1016.7 0.2
26/02:30pm 13.2 3.9 0.6 42 5.4 WNW 39 50 21 27 1017.4 1016.5 0.2
26/02:16pm 13.5 4.9 0.2 40 5.7 WNW 35 56 19 30 1017.6 1016.7 0.2
26/02:00pm 12.8 4.2 0.2 42 5.4 WNW 35 46 19 25 1017.9 1017.0 0.2
26/01:30pm 13.4 4.5 0.8 42 5.5 WNW 37 56 20 30 1017.9 1017.0 0.2
26/01:25pm 13.9 5.4 0.9 41 5.7 WNW 35 56 19 30 1017.8 1016.9 0.2
26/01:00pm 13.1 4.0 2.1 47 4.9 NW 39 50 21 27 1018.2 1017.2 0.2
26/12:30pm 12.5 4.2 2.1 49 4.6 WNW 35 54 19 29 1018.3 1017.3 0.2
26/12:23pm 11.9 3.4 1.0 47 4.7 WNW 35 54 19 29 1018.4 1017.4 0.2
26/12:00pm 11.2 3.3 2.0 53 4.0 WNW 33 44 18 24 1018.6 1017.6 0.2
26/11:45am 11.3 3.0 2.3 54 4.0 WNW 35 54 19 29 1018.6 1017.6 0.2
26/11:30am 10.7 3.5 3.0 59 3.4 W 30 43 16 23 1018.7 1017.7 0.2
26/11:00am 9.7 3.0 3.9 67 2.6 WNW 28 41 15 22 1018.9 1017.9 0.2
26/10:30am 9.4 3.7 5.0 74 2.0 WNW 24 30 13 16 1018.7 1017.7 0.0
26/10:00am 8.4 2.8 5.5 82 1.3 WNW 24 32 13 17 1018.7 1017.7 0.0
26/09:30am 7.6 4.5 7.3 98 0.1 NNW 13 19 7 10 1018.6 1017.6 0.0
26/09:00am 6.4 3.0 6.1 98 0.1 NNW 13 17 7 9 1018.4 1017.4 1.4
26/08:30am 6.1 2.7 6.0 99 0.0 N 13 17 7 9 1017.8 1016.9 1.4
26/08:00am 4.6 1.7 4.5 99 0.0 NNW 9 13 5 7 1017.5 1016.6 1.4
26/07:30am 3.8 0.0 3.7 99 0.0 N 13 15 7 8 1017.2 1016.3 1.4
26/07:00am 3.2 -0.4 3.1 99 0.0 N 11 13 6 7 1016.9 1015.9 1.4
26/06:30am 3.3 -0.6 3.2 99 0.0 N 13 15 7 8 1016.7 1015.7 1.2
26/06:00am 4.4 0.3 4.3 99 0.0 N 15 19 8 10 1016.4 1015.4 1.2
26/05:30am 4.3 0.2 4.2 99 0.0 N 15 20 8 11 1016.1 1015.1 1.2
26/05:00am 4.1 0.3 4.0 99 0.0 N 13 17 7 9 1016.0 1015.0 1.2
26/04:30am 4.9 1.3 4.8 99 0.0 N 13 17 7 9 1016.0 1015.0 1.2
26/04:00am 4.5 0.0 4.4 99 0.0 N 17 19 9 10 1015.5 1014.6 1.2
26/03:30am 4.3 0.2 4.2 99 0.0 NNW 15 20 8 11 1015.5 1014.6 1.2
26/03:00am 5.1 1.5 5.0 99 0.0 N 13 17 7 9 1015.5 1014.6 1.2
26/02:30am 6.3 3.0 6.2 99 0.0 NNW 13 17 7 9 1015.5 1014.6 1.2
26/02:00am 6.7 3.8 6.4 98 0.1 NNW 11 15 6 8 1015.7 1014.7 0.8
26/01:30am 6.6 2.5 6.3 98 0.1 WNW 17 24 9 13 1015.9 1014.9 0.8
26/01:10am 6.7 1.3 6.4 98 0.1 W 24 32 13 17 1016.1 1015.1 0.6
26/01:00am 6.7 0.9 6.4 98 0.1 W 26 39 14 21 1016.1 1015.1 0.4
26/12:30am 7.2 2.3 6.9 98 0.1 WSW 22 30 12 16 1016.2 1015.2 0.0
26/12:00am 7.6 1.5 6.4 92 0.6 WSW 28 37 15 20 1016.4 1015.4 0.0
 
Date/Time
EDT
Temp
°C
App
Temp
°C
Dew
Point
Rel
Hum
%
Delta-T
°C
Wind Press
QNH
hPa
Press
MSL
hPa
Rain
since 9 am
mm
Dir
 
Spd
km/h
Gust
km/h
Spd
kts
Gust
kts
25/11:47pm 7.8 0.8 6.1 89 0.8 WSW 32 43 17 23 1016.3 1015.3 0.0
25/11:30pm 8.1 0.2 6.2 88 0.9 WSW 37 50 20 27 1016.0 1015.0 0.0
25/11:20pm 9.5 2.5 5.9 78 1.7 NW 32 59 17 32 1015.5 1014.6 0.0
25/11:17pm 11.5 5.3 4.5 62 3.2 NNW 26 59 14 32 1015.3 1014.4 0.0
25/11:00pm 12.7 7.2 2.0 48 4.7 N 20 26 11 14 1014.6 1013.6 0.0
25/10:30pm 12.3 7.1 2.2 50 4.5 N 19 24 10 13 1014.8 1013.8 0.0
25/10:00pm 12.2 7.3 2.1 50 4.5 N 17 22 9 12 1014.9 1013.9 0.0

Other Formats:

Comma delimited format used in spreadsheet applications
http://www.bom.gov.au/fwo/IDV60801/IDV60801.94852.axf

JavaScript Object Notation format (JSON) in row-major order
http://www.bom.gov.au/fwo/IDV60801/IDV60801.94852.json